createdAt,value
2018-07-22T00:01:34.989Z,66.70
2018-07-22T00:04:06.883Z,66.80
2018-07-22T00:06:35.435Z,67.00
2018-07-22T00:09:05.365Z,66.80
2018-07-22T00:11:33.826Z,67.00
2018-07-22T00:14:01.667Z,66.80
2018-07-22T00:16:36.075Z,67.10
2018-07-22T00:22:06.576Z,67.00
2018-07-22T00:24:35.973Z,67.10
2018-07-22T00:27:04.628Z,67.20
2018-07-22T00:29:32.606Z,67.20
2018-07-22T00:32:00.374Z,67.50
2018-07-22T00:34:28.081Z,67.50
2018-07-22T00:37:05.380Z,67.50
2018-07-22T00:39:34.093Z,67.40
2018-07-22T00:42:22.716Z,67.50
2018-07-22T00:45:04.853Z,67.70
2018-07-22T00:47:32.530Z,67.90
2018-07-22T00:50:00.271Z,68.20
2018-07-22T00:52:28.002Z,68.60
2018-07-22T00:54:55.752Z,68.60
2018-07-22T00:57:23.519Z,68.70
2018-07-22T00:59:51.240Z,68.90
2018-07-22T01:02:18.931Z,68.90
2018-07-22T01:04:46.775Z,68.90
2018-07-22T01:07:16.135Z,69.20
2018-07-22T01:09:48.493Z,69.80
2018-07-22T01:12:16.182Z,70.30
2018-07-22T01:14:43.890Z,70.30
2018-07-22T01:17:11.915Z,70.30
2018-07-22T01:19:39.715Z,70.00
2018-07-22T01:22:23.043Z,69.80
2018-07-22T01:24:50.770Z,69.90
2018-07-22T01:27:18.380Z,70.60
2018-07-22T01:29:46.134Z,70.90
2018-07-22T01:32:13.911Z,70.30
2018-07-22T01:34:42.853Z,71.00
2018-07-22T01:37:11.632Z,70.90
2018-07-22T01:39:39.573Z,70.90
2018-07-22T01:42:07.672Z,70.80
2018-07-22T01:44:37.936Z,70.80
2018-07-22T01:47:05.725Z,70.80
2018-07-22T01:49:33.542Z,70.90
2018-07-22T01:52:01.341Z,70.90
2018-07-22T01:54:29.071Z,70.00
2018-07-22T01:56:57.916Z,70.20
2018-07-22T01:59:25.669Z,70.20
2018-07-22T02:01:53.338Z,69.60
2018-07-22T02:04:21.886Z,69.50
2018-07-22T02:06:49.612Z,69.60
2018-07-22T02:09:18.699Z,69.80
2018-07-22T02:11:46.431Z,69.70
2018-07-22T02:14:14.140Z,69.70
2018-07-22T02:16:41.905Z,69.20
2018-07-22T02:19:09.745Z,69.10
2018-07-22T02:21:37.559Z,68.30
2018-07-22T02:24:05.796Z,68.70
2018-07-22T02:26:33.578Z,67.60
2018-07-22T02:29:07.053Z,67.20
2018-07-22T02:31:34.853Z,67.30
2018-07-22T02:34:02.491Z,67.50
2018-07-22T02:36:30.217Z,67.70
2018-07-22T02:38:57.867Z,67.80
2018-07-22T02:41:25.688Z,67.40
2018-07-22T02:43:53.379Z,67.70
2018-07-22T02:46:21.112Z,67.60
2018-07-22T02:51:52.376Z,67.80
2018-07-22T02:54:20.519Z,67.70
2018-07-22T02:57:05.558Z,67.80
2018-07-22T02:59:33.527Z,68.00
2018-07-22T03:02:01.346Z,68.70
2018-07-22T03:04:28.970Z,68.60
2018-07-22T03:06:56.708Z,69.20
2018-07-22T03:09:24.398Z,68.80
2018-07-22T03:11:52.072Z,68.50
2018-07-22T03:14:19.714Z,68.20
2018-07-22T03:16:47.488Z,67.80
2018-07-22T03:19:15.171Z,68.10
2018-07-22T03:21:55.640Z,68.60
2018-07-22T03:24:23.302Z,69.00
2018-07-22T03:27:04.617Z,69.30
2018-07-22T03:29:36.407Z,69.00
2018-07-22T03:34:45.478Z,69.60
2018-07-22T03:37:13.204Z,70.10
2018-07-22T03:40:04.801Z,70.20
2018-07-22T03:42:32.510Z,70.10
2018-07-22T03:45:00.167Z,70.20
2018-07-22T03:50:10.623Z,70.10
2018-07-22T03:52:49.760Z,70.20
2018-07-22T03:55:17.596Z,70.20
2018-07-22T03:57:46.623Z,71.00
2018-07-22T04:00:14.318Z,70.20
2018-07-22T04:02:42.000Z,71.00
2018-07-22T04:05:09.725Z,70.20
2018-07-22T04:07:37.558Z,70.20
2018-07-22T04:10:05.396Z,70.20
2018-07-22T04:12:36.948Z,70.20
2018-07-22T04:15:04.973Z,69.90
2018-07-22T04:17:35.781Z,70.10
2018-07-22T04:20:03.970Z,70.10
2018-07-22T04:22:31.625Z,70.10
2018-07-22T04:24:59.379Z,70.10
2018-07-22T04:27:27.075Z,70.20
2018-07-22T04:29:54.789Z,70.20
2018-07-22T04:32:22.442Z,70.20
2018-07-22T04:34:50.034Z,70.20
2018-07-22T04:37:17.865Z,70.20
2018-07-22T04:39:45.491Z,70.20
2018-07-22T04:45:12.609Z,70.10
2018-07-22T04:50:27.188Z,70.30
2018-07-22T04:52:55.265Z,70.20
2018-07-22T04:55:23.383Z,70.20
2018-07-22T04:57:51.063Z,70.20
2018-07-22T05:00:19.800Z,69.80
2018-07-22T05:02:54.088Z,70.20
2018-07-22T05:05:21.890Z,70.10
2018-07-22T05:08:04.604Z,70.30
2018-07-22T05:10:37.974Z,70.30
2018-07-22T05:13:06.414Z,69.90
2018-07-22T05:16:05.197Z,69.50
2018-07-22T05:18:34.634Z,69.30
2018-07-22T05:21:05.412Z,69.30
2018-07-22T05:23:34.799Z,69.50
2018-07-22T05:31:04.866Z,69.40
2018-07-22T05:39:20.085Z,68.80
2018-07-22T05:42:06.234Z,68.20
2018-07-22T05:44:36.781Z,67.50
2018-07-22T05:47:05.532Z,67.60
2018-07-22T05:49:49.806Z,67.00
2018-07-22T05:52:18.151Z,66.40
2018-07-22T05:54:45.737Z,65.60
2018-07-22T05:57:13.768Z,65.80
2018-07-22T05:59:41.449Z,65.50
2018-07-22T06:02:09.219Z,64.60
2018-07-22T06:04:37.840Z,64.50
2018-07-22T06:07:06.085Z,64.20
2018-07-22T06:12:38.837Z,62.70
2018-07-22T06:18:34.057Z,61.70
2018-07-22T06:21:03.247Z,61.60
2018-07-22T06:23:37.221Z,61.00
2018-07-22T06:26:05.587Z,61.10
2018-07-22T06:28:34.570Z,61.00
2018-07-22T06:31:02.256Z,61.00
2018-07-22T06:33:29.850Z,61.00
2018-07-22T06:35:57.594Z,60.00
2018-07-22T06:38:25.274Z,61.00
2018-07-22T06:41:05.739Z,61.60
2018-07-22T06:43:33.415Z,60.00
2018-07-22T06:46:01.150Z,59.80
2018-07-22T06:48:29.266Z,59.20
2018-07-22T06:51:05.282Z,59.00
2018-07-22T06:53:33.060Z,58.70
2018-07-22T06:56:05.323Z,58.70
2018-07-22T06:58:32.935Z,59.00
2018-07-22T07:01:01.413Z,58.60
2018-07-22T07:03:35.849Z,58.60
2018-07-22T07:06:04.471Z,58.70
2018-07-22T07:08:35.320Z,58.70
2018-07-22T07:11:02.943Z,58.70
2018-07-22T07:13:30.647Z,58.50
2018-07-22T07:15:59.238Z,58.50
2018-07-22T07:18:26.978Z,58.60
2018-07-22T07:20:58.777Z,58.50
2018-07-22T07:23:26.567Z,58.20
2018-07-22T07:25:54.106Z,58.40
2018-07-22T07:28:21.690Z,58.50
2018-07-22T07:30:49.438Z,59.40
2018-07-22T07:33:17.176Z,58.70
2018-07-22T07:35:44.705Z,58.50
2018-07-22T07:38:12.678Z,58.30
2018-07-22T07:40:40.268Z,58.70
2018-07-22T07:43:07.997Z,58.10
2018-07-22T07:45:35.675Z,58.20
2018-07-22T07:48:03.325Z,58.70
2018-07-22T07:50:30.877Z,58.20
2018-07-22T07:52:59.551Z,57.40
2018-07-22T07:55:30.617Z,56.80
2018-07-22T07:58:00.384Z,55.90
2018-07-22T08:00:28.178Z,55.30
2018-07-22T08:02:55.832Z,54.80
2018-07-22T08:05:27.137Z,53.20
2018-07-22T08:07:54.801Z,53.80
2018-07-22T08:10:22.670Z,53.40
2018-07-22T08:12:50.344Z,53.00
2018-07-22T08:15:18.189Z,52.70
2018-07-22T08:17:45.818Z,52.40
2018-07-22T08:20:15.355Z,52.10
2018-07-22T08:22:42.385Z,52.40
2018-07-22T08:25:11.288Z,51.50
2018-07-22T08:27:39.012Z,51.50
2018-07-22T08:30:06.708Z,50.50
2018-07-22T08:32:35.135Z,50.10
2018-07-22T08:35:04.267Z,50.50
2018-07-22T08:37:34.259Z,49.50
2018-07-22T08:40:01.935Z,49.20
2018-07-22T08:42:29.582Z,49.10
2018-07-22T08:44:57.215Z,48.60
2018-07-22T08:47:24.775Z,48.10
2018-07-22T08:49:52.368Z,48.00
2018-07-22T08:52:20.597Z,48.10
2018-07-22T08:54:48.458Z,47.60
2018-07-22T08:57:42.806Z,46.50
2018-07-22T09:00:35.627Z,46.70
2018-07-22T09:03:03.303Z,47.20
2018-07-22T09:05:30.995Z,46.40
2018-07-22T09:07:58.711Z,46.70
2018-07-22T09:10:26.273Z,46.30
2018-07-22T09:12:53.862Z,46.60
2018-07-22T09:15:21.407Z,46.60
2018-07-22T09:17:49.033Z,46.40
2018-07-22T09:20:35.471Z,46.40
2018-07-22T09:23:03.039Z,46.20
2018-07-22T09:25:30.741Z,46.20
2018-07-22T09:28:01.099Z,46.10
2018-07-22T09:30:29.411Z,45.70
2018-07-22T09:32:58.825Z,45.80
2018-07-22T09:35:26.394Z,45.10
2018-07-22T09:38:06.014Z,45.10
2018-07-22T09:40:33.606Z,44.10
2018-07-22T09:43:04.856Z,45.10
2018-07-22T09:48:39.162Z,43.70
2018-07-22T09:51:06.864Z,43.40
2018-07-22T09:53:35.699Z,43.30
2018-07-22T09:56:03.413Z,42.40
2018-07-22T09:58:31.109Z,42.40
2018-07-22T10:01:14.191Z,42.90
2018-07-22T10:03:42.286Z,42.30
2018-07-22T10:06:16.255Z,42.20
2018-07-22T10:08:43.975Z,41.30
2018-07-22T10:11:11.580Z,41.40
2018-07-22T10:13:39.265Z,40.60
2018-07-22T10:16:07.038Z,38.50
2018-07-22T10:21:41.653Z,36.60
2018-07-22T10:24:09.542Z,36.60
2018-07-22T10:26:37.207Z,36.70
2018-07-22T10:29:05.353Z,36.80
2018-07-22T10:31:35.213Z,36.80
2018-07-22T10:34:06.393Z,34.70
2018-07-22T10:37:04.898Z,36.00
2018-07-22T10:39:36.030Z,36.60
2018-07-22T10:42:05.825Z,35.50
2018-07-22T10:44:33.684Z,37.40
2018-07-22T10:47:01.298Z,34.90
2018-07-22T10:49:36.722Z,34.30
2018-07-22T10:52:04.416Z,34.20
2018-07-22T10:54:32.170Z,34.20
2018-07-22T10:57:05.568Z,34.90
2018-07-22T10:59:33.369Z,33.30
2018-07-22T11:02:01.123Z,33.00
2018-07-22T11:04:28.841Z,32.70
2018-07-22T11:06:57.574Z,32.20
2018-07-22T11:09:34.870Z,33.30
2018-07-22T11:12:03.606Z,32.90
2018-07-22T11:14:31.334Z,32.40
2018-07-22T11:16:58.991Z,33.30
2018-07-22T11:22:33.082Z,32.90
2018-07-22T11:25:00.839Z,32.50
2018-07-22T11:27:36.053Z,30.30
2018-07-22T11:30:05.101Z,30.10
2018-07-22T11:32:39.198Z,29.30
2018-07-22T11:35:07.310Z,29.80
2018-07-22T11:40:36.032Z,29.20
2018-07-22T11:43:04.308Z,28.50
2018-07-22T11:45:32.895Z,28.50
2018-07-22T11:48:00.879Z,28.00
2018-07-22T11:50:31.102Z,27.40
2018-07-22T11:56:08.933Z,28.30
2018-07-22T11:58:40.674Z,28.40
2018-07-22T12:01:17.025Z,28.40
2018-07-22T12:03:44.755Z,28.20
2018-07-22T12:06:13.374Z,28.10
2018-07-22T12:08:41.020Z,28.20
2018-07-22T12:11:08.731Z,28.20
2018-07-22T12:13:36.399Z,28.30
2018-07-22T12:16:04.385Z,28.70
2018-07-22T12:18:32.320Z,28.20
2018-07-22T12:21:07.154Z,28.50
2018-07-22T12:23:36.368Z,28.40
2018-07-22T12:26:05.883Z,27.90
2018-07-22T12:28:46.475Z,25.70
2018-07-22T12:31:14.072Z,25.60
2018-07-22T12:33:41.772Z,25.20
2018-07-22T12:36:11.254Z,23.90
2018-07-22T12:38:38.882Z,23.70
2018-07-22T12:41:07.752Z,23.70
2018-07-22T12:43:39.313Z,23.70
2018-07-22T12:46:07.013Z,22.00
2018-07-22T12:48:39.108Z,21.50
2018-07-22T12:51:11.305Z,21.30
2018-07-22T12:53:39.092Z,20.90
2018-07-22T12:56:08.795Z,21.00
2018-07-22T12:58:36.470Z,20.30
2018-07-22T13:01:06.356Z,20.10
2018-07-22T13:03:35.156Z,19.70
2018-07-22T13:06:02.801Z,20.80
2018-07-22T13:08:30.389Z,21.30
2018-07-22T13:11:06.120Z,21.20
2018-07-22T13:13:36.090Z,21.00
2018-07-22T13:16:03.944Z,21.70
2018-07-22T13:18:31.798Z,22.20
2018-07-22T13:21:06.335Z,22.80
2018-07-22T13:23:35.148Z,23.60
2018-07-22T13:26:02.799Z,24.70
2018-07-22T13:28:30.428Z,24.60
2018-07-22T13:30:58.202Z,26.00
2018-07-22T13:33:26.888Z,27.00
2018-07-22T13:35:58.515Z,28.30
2018-07-22T13:38:26.303Z,29.00
2018-07-22T13:40:55.992Z,30.10
2018-07-22T13:43:23.657Z,31.20
2018-07-22T13:45:52.348Z,31.80
2018-07-22T13:48:20.083Z,31.30
2018-07-22T13:50:47.731Z,31.10
2018-07-22T13:53:15.338Z,31.10
2018-07-22T13:55:48.121Z,30.80
2018-07-22T13:58:15.806Z,31.00
2018-07-22T14:00:43.387Z,30.80
2018-07-22T14:03:11.023Z,30.90
2018-07-22T14:05:38.621Z,31.10
2018-07-22T14:08:06.261Z,31.70
2018-07-22T14:10:33.952Z,31.30
2018-07-22T14:13:01.585Z,34.80
2018-07-22T14:15:29.210Z,39.00
2018-07-22T14:17:59.672Z,39.80
2018-07-22T14:20:27.353Z,45.60
2018-07-22T14:22:54.883Z,53.70
2018-07-22T14:25:22.526Z,58.50
2018-07-22T14:27:50.397Z,61.00
2018-07-22T14:30:18.004Z,61.80
2018-07-22T14:32:45.635Z,59.30
2018-07-22T14:35:13.400Z,61.30
2018-07-22T14:37:46.755Z,63.80
2018-07-22T14:40:14.406Z,64.30
2018-07-22T14:42:42.006Z,63.60
2018-07-22T14:45:09.735Z,63.40
2018-07-22T14:47:37.601Z,63.40
2018-07-22T14:50:05.564Z,64.10
2018-07-22T14:52:37.322Z,66.30
2018-07-22T14:55:10.305Z,65.40
2018-07-22T14:57:38.046Z,67.00
2018-07-22T15:00:07.049Z,66.50
2018-07-22T15:02:36.848Z,68.30
2018-07-22T15:05:05.488Z,68.00
2018-07-22T15:07:34.806Z,68.60
2018-07-22T15:10:02.770Z,69.80
2018-07-22T15:12:31.463Z,63.70
2018-07-22T15:15:00.421Z,65.00
2018-07-22T15:17:29.152Z,64.90
2018-07-22T15:19:57.876Z,63.80
2018-07-22T15:22:26.641Z,64.50
2018-07-22T15:24:54.435Z,65.60
2018-07-22T15:27:22.170Z,63.70
2018-07-22T15:29:50.350Z,65.20
2018-07-22T15:32:17.964Z,64.80
2018-07-22T15:34:45.670Z,67.00
2018-07-22T15:37:16.201Z,66.90
2018-07-22T15:39:51.819Z,65.80
2018-07-22T15:42:21.392Z,66.00
2018-07-22T15:44:50.188Z,64.80
2018-07-22T15:47:17.835Z,62.00
2018-07-22T15:49:45.641Z,63.70
2018-07-22T15:52:19.049Z,66.50
2018-07-22T15:54:46.912Z,68.30
2018-07-22T15:57:34.302Z,70.30
2018-07-22T16:00:08.441Z,67.50
2018-07-22T16:02:55.271Z,68.60
2018-07-22T16:05:23.049Z,63.30
2018-07-22T16:07:52.763Z,64.10
2018-07-22T16:10:20.334Z,62.00
2018-07-22T16:12:48.185Z,64.10
2018-07-22T16:15:16.821Z,60.60
2018-07-22T16:17:44.529Z,58.00
2018-07-22T16:20:13.217Z,59.90
2018-07-22T16:22:41.979Z,62.00
2018-07-22T16:25:15.021Z,62.50
2018-07-22T16:27:42.715Z,65.70
2018-07-22T16:30:10.414Z,64.40
2018-07-22T16:32:38.146Z,55.10
2018-07-22T16:35:05.987Z,55.20
2018-07-22T16:37:37.172Z,55.20
2018-07-22T16:40:04.773Z,55.50
2018-07-22T16:42:32.399Z,54.40
2018-07-22T16:44:59.976Z,50.20
2018-07-22T16:47:27.583Z,51.00
2018-07-22T16:49:55.848Z,49.50
2018-07-22T16:52:23.538Z,50.30
2018-07-22T16:54:51.380Z,52.00
2018-07-22T16:57:19.883Z,50.20
2018-07-22T16:59:47.644Z,51.60
2018-07-22T17:02:15.719Z,50.20
2018-07-22T17:04:43.376Z,50.30
2018-07-22T17:07:11.007Z,51.70
2018-07-22T17:09:38.618Z,49.20
2018-07-22T17:12:06.475Z,51.90
2018-07-22T17:14:34.110Z,51.50
2018-07-22T17:17:02.471Z,49.90
2018-07-22T17:19:30.018Z,50.90
2018-07-22T17:21:57.717Z,50.80
2018-07-22T17:24:25.378Z,51.90
2018-07-22T17:26:53.467Z,51.10
2018-07-22T17:29:21.206Z,49.40
2018-07-22T17:31:48.865Z,50.80
2018-07-22T17:34:16.577Z,51.10
2018-07-22T17:36:44.210Z,51.70
2018-07-22T17:39:11.947Z,51.00
2018-07-22T17:41:40.091Z,51.60
2018-07-22T17:44:08.306Z,50.30
2018-07-22T17:46:36.509Z,51.70
2018-07-22T17:49:04.512Z,52.00
2018-07-22T17:51:32.223Z,51.60
2018-07-22T17:54:01.450Z,51.20
2018-07-22T17:56:29.545Z,52.00
2018-07-22T17:58:57.269Z,52.70
2018-07-22T18:01:25.726Z,51.30
2018-07-22T18:03:53.432Z,51.60
2018-07-22T18:06:21.434Z,54.10
2018-07-22T18:08:55.791Z,54.10
2018-07-22T18:11:33.850Z,52.00
2018-07-22T18:14:01.543Z,52.80
2018-07-22T18:16:31.932Z,52.50
2018-07-22T18:18:59.703Z,52.70
2018-07-22T18:21:27.398Z,56.50
2018-07-22T18:23:55.139Z,57.10
2018-07-22T18:26:22.910Z,54.80
2018-07-22T18:28:50.759Z,58.60
2018-07-22T18:31:19.546Z,54.60
2018-07-22T18:33:47.628Z,53.90
2018-07-22T18:36:15.302Z,53.00
2018-07-22T18:38:42.902Z,55.20
2018-07-22T18:41:11.510Z,53.90
2018-07-22T18:43:39.407Z,53.40
2018-07-22T18:46:07.036Z,52.40
2018-07-22T18:48:35.080Z,53.60
2018-07-22T18:51:02.648Z,53.80
2018-07-22T18:53:30.418Z,53.80
2018-07-22T18:55:58.077Z,58.30
2018-07-22T18:58:25.635Z,59.30
2018-07-22T19:00:54.319Z,61.00
2018-07-22T19:03:22.171Z,61.40
2018-07-22T19:05:49.713Z,63.20
2018-07-22T19:11:06.909Z,64.50
2018-07-22T19:13:34.852Z,63.30
2018-07-22T19:16:04.067Z,65.30
2018-07-22T19:18:31.937Z,65.60
2018-07-22T19:20:59.918Z,67.10
2018-07-22T19:23:27.541Z,67.60
2018-07-22T19:25:55.228Z,68.00
2018-07-22T19:28:22.915Z,65.70
2018-07-22T19:30:51.711Z,67.50
2018-07-22T19:33:19.708Z,68.40
2018-07-22T19:35:47.848Z,67.70
2018-07-22T19:38:15.786Z,68.70
2018-07-22T19:40:44.503Z,68.20
2018-07-22T19:43:12.188Z,67.40
2018-07-22T19:45:40.280Z,67.30
2018-07-22T19:48:08.171Z,68.10
2018-07-22T19:50:36.923Z,69.60
2018-07-22T19:53:08.400Z,70.00
2018-07-22T19:55:37.119Z,70.00
2018-07-22T19:58:06.027Z,68.40
2018-07-22T20:00:34.016Z,69.00
2018-07-22T20:03:01.681Z,68.80
2018-07-22T20:05:30.620Z,69.10
2018-07-22T20:07:58.275Z,69.90
2018-07-22T20:10:25.905Z,69.00
2018-07-22T20:12:53.822Z,68.60
2018-07-22T20:15:21.438Z,67.10
2018-07-22T20:17:49.029Z,67.00
2018-07-22T20:20:16.573Z,67.30
2018-07-22T20:22:44.258Z,67.60
2018-07-22T20:25:12.027Z,67.90
2018-07-22T20:27:39.794Z,68.70
2018-07-22T20:30:07.561Z,68.80
2018-07-22T20:32:35.701Z,68.30
2018-07-22T20:35:03.450Z,67.90
2018-07-22T20:37:31.074Z,68.30
2018-07-22T20:39:58.689Z,68.90
2018-07-22T20:42:26.443Z,68.80
2018-07-22T20:44:54.250Z,68.20
2018-07-22T20:47:22.338Z,68.20
2018-07-22T20:49:50.115Z,69.30
2018-07-22T20:52:26.260Z,69.80
2018-07-22T20:54:59.364Z,69.50
2018-07-22T20:57:33.674Z,70.50
2018-07-22T21:00:01.832Z,70.80
2018-07-22T21:02:32.185Z,70.10
2018-07-22T21:05:00.290Z,69.70
2018-07-22T21:07:31.361Z,70.00
2018-07-22T21:09:59.355Z,71.10
2018-07-22T21:12:54.605Z,71.00
2018-07-22T21:15:22.526Z,71.60
2018-07-22T21:17:53.193Z,71.80
2018-07-22T21:20:22.226Z,72.40
2018-07-22T21:22:50.144Z,71.90
2018-07-22T21:25:18.118Z,72.30
2018-07-22T21:27:48.122Z,72.40
2018-07-22T21:30:16.091Z,73.00
2018-07-22T21:32:43.971Z,73.30
2018-07-22T21:35:21.833Z,72.10
2018-07-22T21:37:54.611Z,72.50
2018-07-22T21:40:29.738Z,72.40
2018-07-22T21:43:06.011Z,72.90
2018-07-22T21:45:37.493Z,74.10
2018-07-22T21:48:06.783Z,74.70
2018-07-22T21:50:38.108Z,74.40
2018-07-22T21:53:06.922Z,75.00
2018-07-22T21:55:34.896Z,75.40
2018-07-22T21:58:04.945Z,74.80
2018-07-22T22:00:48.706Z,75.50
2018-07-22T22:03:30.995Z,76.60
2018-07-22T22:05:59.541Z,76.60
2018-07-22T22:08:37.372Z,76.10
2018-07-22T22:11:06.558Z,75.80
2018-07-22T22:13:34.632Z,75.30
2018-07-22T22:16:05.843Z,76.00
2018-07-22T22:18:36.562Z,76.00
2018-07-22T22:21:04.656Z,75.80
2018-07-22T22:23:32.611Z,76.30
2018-07-22T22:26:00.671Z,76.10
2018-07-22T22:28:32.677Z,76.00
2018-07-22T22:31:01.747Z,75.20
2018-07-22T22:33:29.961Z,76.80
2018-07-22T22:35:57.959Z,76.50
2018-07-22T22:38:25.543Z,76.60
2018-07-22T22:40:54.454Z,76.00
2018-07-22T22:43:22.314Z,76.10
2018-07-22T22:45:49.904Z,76.40
2018-07-22T22:48:17.605Z,76.50
2018-07-22T22:50:45.222Z,76.50
2018-07-22T22:53:12.781Z,75.70
2018-07-22T22:55:40.413Z,75.30
2018-07-22T22:58:19.297Z,75.30
2018-07-22T23:00:46.946Z,75.70
2018-07-22T23:03:14.495Z,75.70
2018-07-22T23:05:42.204Z,75.40
2018-07-22T23:08:10.018Z,75.50
2018-07-22T23:10:37.738Z,75.60
2018-07-22T23:13:05.957Z,75.50
2018-07-22T23:15:34.676Z,75.80
2018-07-22T23:18:02.270Z,76.70
2018-07-22T23:20:29.771Z,76.90
2018-07-22T23:22:57.294Z,77.20
2018-07-22T23:25:24.864Z,76.70
2018-07-22T23:27:52.401Z,76.50
2018-07-22T23:30:20.134Z,75.80
2018-07-22T23:32:47.644Z,76.40
2018-07-22T23:35:15.237Z,76.20
2018-07-22T23:37:42.831Z,75.50
2018-07-22T23:40:10.462Z,75.40
2018-07-22T23:42:38.371Z,75.90
2018-07-22T23:45:06.105Z,76.10
2018-07-22T23:47:34.031Z,76.00
2018-07-22T23:50:02.075Z,75.80
2018-07-22T23:52:29.690Z,76.10
2018-07-22T23:54:57.300Z,75.70
2018-07-22T23:57:24.871Z,75.30
2018-07-22T23:59:52.455Z,75.80
